Dugginsville, Missouri
Current Conditions -  °F | °C
As of 9:13 AM on Thursday 18 Dec 2014 (Local Time) from KBPK Reporting Station
Haze Haze  
Wind Chill: 30°   Ceiling: 400
Heat Index: 34°   Visibility: 4mi
Dew Point: 33°   Wind: 5mph
Humidity: 96%   Direction: 140°SE
Pressure: 30.23"   Gusts: NA
Location:  36.5847°N, 92.7117°W
Report Text: KBPK 181513Z AUTO 14004KT 4SM BR BKN004 OVC009 01/01 A3023 RMK AO2 T00110006
Loading
Personal Weather Stations






























Interactive Weather Map New forecast layout! Learn more

10-Day Weather Forecast

Advertisements
Track Severe Weather on mobile